Time;durP1;ratioP1;P1;durP2;ratioP2;P2;SDS_P1;SDS_P2;PMS_P1;PMS_P2;Temp;Humidity;BMP_temperature;BMP_pressure;BME280_temperature;BME280_humidity;BME280_pressure;Samples;Min_cycle;Max_cycle;Signal;HPM_P1;HPM_P2
2022/03/14 00:00:58;;;;;;;;;;;;;;;1.52;56.59;102974.42;1651577;87;25752;-58
2022/03/14 00:03:25;;;;;;;;;;;;;;;1.50;56.45;102972.70;1683268;85;27042;-58
2022/03/14 00:05:52;;;;;;;;;;;;;;;1.49;56.63;102976.25;1685609;85;25785;-59
2022/03/14 00:08:21;;;;;;;;;;;;;;;1.46;56.64;102977.17;1678689;85;28160;-58
2022/03/14 00:10:51;;;;;;;;;;;;;;;1.44;56.61;102980.73;1678456;85;25833;-58
2022/03/14 00:13:17;;;;;;;;;;;;;;;1.33;56.76;102986.19;1678325;84;25744;-58
2022/03/14 00:15:46;;;;;;;;;;;;;;;1.19;57.12;102987.28;1678201;84;25793;-58
2022/03/14 00:18:13;;;;;;;;;;;;;;;1.09;57.40;102986.50;1678490;85;25761;-58
2022/03/14 00:20:41;;;;;;;;;;;;;;;1.06;57.13;102979.05;1678249;85;27278;-58
2022/03/14 00:23:08;;;;;;;;;;;;;;;1.11;57.26;102977.66;1678381;85;25761;-58
2022/03/14 00:25:36;;;;;;;;;;;;;;;1.20;57.30;102977.11;1675483;84;25870;-58
2022/03/14 00:28:04;;;;;;;;;;;;;;;1.28;57.15;102979.63;1697336;84;25739;-58
2022/03/14 00:30:30;;;;;;;;;;;;;;;1.33;56.96;102980.89;1701680;84;26037;-58
2022/03/14 00:32:57;;;;;;;;;;;;;;;1.39;57.01;102980.83;1711068;84;27506;-58
2022/03/14 00:35:25;;;;;;;;;;;;;;;1.40;57.10;102979.47;1703807;84;25847;-58
2022/03/14 00:37:51;;;;;;;;;;;;;;;1.43;57.02;102981.66;1701326;83;25710;-58
2022/03/14 00:40:18;;;;;;;;;;;;;;;1.45;56.72;102993.98;1701087;84;25806;-58
2022/03/14 00:42:48;;;;;;;;;;;;;;;1.47;56.73;102992.20;1701503;82;25789;-58
2022/03/14 00:45:14;;;;;;;;;;;;;;;1.47;56.56;102989.55;1701319;84;28560;-58
2022/03/14 00:47:41;;;;;;;;;;;;;;;1.45;56.63;102989.11;1701314;84;25686;-58
2022/03/14 00:50:09;;;;;;;;;;;;;;;1.44;56.49;102996.21;1701409;84;25731;-58
2022/03/14 00:52:37;;;;;;;;;;;;;;;1.42;56.53;102991.83;1701400;83;25840;-59
2022/03/14 00:55:05;;;;;;;;;;;;;;;1.44;56.77;102996.64;1701305;83;25480;-59
2022/03/14 00:57:31;;;;;;;;;;;;;;;1.47;56.99;102998.83;1690893;83;28202;-58
2022/03/14 01:00:00;;;;;;;;;;;;;;;1.49;57.06;102998.80;1676077;84;26078;-58
2022/03/14 01:02:27;;;;;;;;;;;;;;;1.43;56.70;102997.57;1657793;86;25736;-58
2022/03/14 01:04:54;;;;;;;;;;;;;;;1.42;56.78;103009.94;1657806;86;26466;-58
2022/03/14 01:07:20;;;;;;;;;;;;;;;1.42;56.72;103005.95;1657794;86;25646;-59
2022/03/14 01:09:47;;;;;;;;;;;;;;;1.44;56.78;103007.25;1657754;86;27509;-59
2022/03/14 01:12:14;;;;;;;;;;;;;;;1.45;56.78;102999.73;1657796;85;25920;-59
2022/03/14 01:14:43;;;;;;;;;;;;;;;1.47;56.67;102996.17;1657724;86;25824;-58
2022/03/14 01:17:10;;;;;;;;;;;;;;;1.47;56.41;103005.46;1657769;86;25994;-58
2022/03/14 01:19:38;;;;;;;;;;;;;;;1.45;56.51;102997.97;1657943;86;26357;-58
2022/03/14 01:22:10;;;;;;;;;;;;;;;1.46;56.70;103002.81;1657671;86;27509;-59
2022/03/14 01:24:35;;;;;;;;;;;;;;;1.46;56.83;103008.11;1668780;84;25729;-58
2022/03/14 01:27:03;;;;;;;;;;;;;;;1.47;56.82;103009.87;1725668;83;25800;-59
2022/03/14 01:29:30;;;;;;;;;;;;;;;1.47;56.81;103006.78;1725557;83;25801;-59
2022/03/14 01:31:58;;;;;;;;;;;;;;;1.48;56.82;103010.30;1722287;83;25677;-58
2022/03/14 01:34:25;;;;;;;;;;;;;;;1.47;56.72;103013.84;1720000;83;27509;-58
2022/03/14 01:36:51;;;;;;;;;;;;;;;1.45;56.76;103016.53;1720105;83;25791;-59
2022/03/14 01:39:17;;;;;;;;;;;;;;;1.39;56.65;103020.61;1720168;83;25534;-58
2022/03/14 01:41:44;;;;;;;;;;;;;;;1.36;56.96;103018.85;1720174;83;25791;-59
2022/03/14 01:44:10;;;;;;;;;;;;;;;1.39;57.17;103016.16;1720394;83;25696;-60
2022/03/14 01:46:37;;;;;;;;;;;;;;;1.40;57.13;103019.68;1720210;83;27509;-59
2022/03/14 01:49:04;;;;;;;;;;;;;;;1.38;57.48;103023.69;1720235;83;25511;-58
2022/03/14 01:51:32;;;;;;;;;;;;;;;1.36;57.52;103029.45;1720170;83;25675;-59
2022/03/14 01:53:58;;;;;;;;;;;;;;;1.35;57.38;103026.84;1720449;83;26913;-59
2022/03/14 01:56:26;;;;;;;;;;;;;;;1.36;57.49;103029.92;1720008;83;27342;-59
2022/03/14 01:58:53;;;;;;;;;;;;;;;1.37;57.49;103033.00;1702711;83;27571;-59
2022/03/14 02:01:20;;;;;;;;;;;;;;;1.37;57.08;103035.20;1725123;83;25763;-58
2022/03/14 02:03:50;;;;;;;;;;;;;;;1.33;56.93;103025.97;1724877;83;25775;-58
2022/03/14 02:06:16;;;;;;;;;;;;;;;1.29;56.91;103033.56;1717062;83;26994;-58
2022/03/14 02:08:42;;;;;;;;;;;;;;;1.23;57.00;103034.05;1715293;83;25786;-57
2022/03/14 02:11:09;;;;;;;;;;;;;;;1.18;57.07;103044.28;1715371;83;27453;-57
2022/03/14 02:13:35;;;;;;;;;;;;;;;1.17;57.10;103041.20;1715223;83;26496;-59
2022/03/14 02:16:02;;;;;;;;;;;;;;;1.16;57.35;103046.96;1715190;82;25894;-58
2022/03/14 02:18:28;;;;;;;;;;;;;;;1.18;57.64;103043.84;1715534;83;25804;-58
2022/03/14 02:20:56;;;;;;;;;;;;;;;1.18;57.60;103045.61;1715382;83;25797;-58
2022/03/14 02:23:22;;;;;;;;;;;;;;;1.19;57.51;103048.27;1715640;83;27475;-58
2022/03/14 02:25:51;;;;;;;;;;;;;;;1.20;57.28;103054.42;1690180;83;25746;-58
2022/03/14 02:28:22;;;;;;;;;;;;;;;1.18;57.34;103056.21;1687997;83;25786;-58
2022/03/14 02:30:53;;;;;;;;;;;;;;;1.15;57.31;103062.44;1688556;85;25812;-58
2022/03/14 02:33:21;;;;;;;;;;;;;;;1.11;57.47;103062.06;1686717;83;25785;-58
2022/03/14 02:35:47;;;;;;;;;;;;;;;1.14;57.70;103053.19;1680265;85;27554;-58
2022/03/14 02:38:16;;;;;;;;;;;;;;;1.17;57.92;103055.34;1676336;85;25761;-58
2022/03/14 02:40:46;;;;;;;;;;;;;;;1.18;58.10;103060.19;1676310;85;25729;-58
2022/03/14 02:43:15;;;;;;;;;;;;;;;1.18;58.00;103070.80;1676329;85;26766;-58
2022/03/14 02:45:43;;;;;;;;;;;;;;;1.18;57.65;103065.06;1676203;85;25950;-58
2022/03/14 02:48:10;;;;;;;;;;;;;;;1.12;57.75;103063.79;1676390;85;28197;-58
2022/03/14 02:50:40;;;;;;;;;;;;;;;1.09;57.87;103065.17;1676105;85;25801;-59
2022/03/14 02:53:06;;;;;;;;;;;;;;;1.12;57.97;103064.25;1676576;85;25738;-58
2022/03/14 02:55:32;;;;;;;;;;;;;;;1.15;58.01;103061.11;1676306;85;26592;-58
2022/03/14 02:57:59;;;;;;;;;;;;;;;1.17;57.83;103055.34;1683950;84;25889;-59
2022/03/14 03:00:25;;;;;;;;;;;;;;;1.18;57.78;103067.71;1705085;84;27502;-59
2022/03/14 03:02:52;;;;;;;;;;;;;;;1.21;57.87;103075.61;1685138;84;26478;-59
2022/03/14 03:05:18;;;;;;;;;;;;;;;1.16;58.40;103084.08;1705151;83;25780;-58
2022/03/14 03:07:47;;;;;;;;;;;;;;;1.01;57.75;103077.64;1705383;84;26664;-59
2022/03/14 03:10:13;;;;;;;;;;;;;;;0.90;58.13;103083.03;1705168;84;27304;-59
2022/03/14 03:12:40;;;;;;;;;;;;;;;0.81;58.20;103072.10;1705015;84;27587;-58
2022/03/14 03:15:08;;;;;;;;;;;;;;;0.81;58.27;103065.48;1705278;84;25941;-59
2022/03/14 03:17:35;;;;;;;;;;;;;;;0.83;58.26;103066.34;1704985;83;25750;-58
2022/03/14 03:20:03;;;;;;;;;;;;;;;0.89;58.44;103064.08;1704951;84;25775;-59
2022/03/14 03:22:29;;;;;;;;;;;;;;;0.97;58.30;103069.28;1705099;84;25789;-59
2022/03/14 03:24:56;;;;;;;;;;;;;;;1.01;58.40;103072.34;1692154;84;27426;-58
2022/03/14 03:27:23;;;;;;;;;;;;;;;1.03;58.41;103078.05;1676260;85;25811;-59
2022/03/14 03:29:50;;;;;;;;;;;;;;;1.06;58.40;103081.10;1676084;85;25766;-58
2022/03/14 03:32:16;;;;;;;;;;;;;;;1.10;58.40;103080.19;1680134;84;27483;-57
2022/03/14 03:34:43;;;;;;;;;;;;;;;1.11;58.00;103077.97;1688619;85;25758;-59
2022/03/14 03:37:09;;;;;;;;;;;;;;;1.10;57.83;103065.60;1689875;85;27544;-58
2022/03/14 03:39:36;;;;;;;;;;;;;;;1.08;57.76;103065.59;1690474;85;26031;-59
2022/03/14 03:42:04;;;;;;;;;;;;;;;1.09;57.99;103067.36;1690765;85;25725;-58
2022/03/14 03:44:31;;;;;;;;;;;;;;;1.11;58.33;103073.99;1690715;85;26554;-58
2022/03/14 03:46:59;;;;;;;;;;;;;;;1.11;58.29;103082.38;1690540;85;25697;-59
2022/03/14 03:49:25;;;;;;;;;;;;;;;1.11;58.42;103084.59;1690794;85;28290;-58
2022/03/14 03:51:52;;;;;;;;;;;;;;;1.13;58.38;103087.22;1690514;85;25744;-58
2022/03/14 03:54:18;;;;;;;;;;;;;;;1.17;58.33;103091.57;1690635;85;25714;-57
2022/03/14 03:56:46;;;;;;;;;;;;;;;1.17;57.96;103097.77;1690698;83;25867;-59
2022/03/14 03:59:13;;;;;;;;;;;;;;;1.09;58.07;103100.96;1666755;85;25949;-58
2022/03/14 04:01:39;;;;;;;;;;;;;;;1.00;58.40;103094.44;1694884;83;29670;-58
2022/03/14 04:04:07;;;;;;;;;;;;;;;0.94;58.21;103102.00;1688413;85;25826;-58
2022/03/14 04:06:35;;;;;;;;;;;;;;;0.92;58.25;103113.06;1688601;83;25899;-58
2022/03/14 04:09:03;;;;;;;;;;;;;;;0.90;58.40;103109.11;1688370;85;25837;-58
2022/03/14 04:11:30;;;;;;;;;;;;;;;0.90;58.33;103109.54;1688573;85;25476;-58
2022/03/14 04:13:58;;;;;;;;;;;;;;;0.88;58.39;103106.05;1688435;85;27346;-58
2022/03/14 04:16:26;;;;;;;;;;;;;;;0.85;58.47;103104.28;1688471;85;25788;-58
2022/03/14 04:18:56;;;;;;;;;;;;;;;0.87;58.70;103106.94;1688809;83;25703;-58
2022/03/14 04:21:23;;;;;;;;;;;;;;;0.91;58.79;103112.20;1688839;85;26693;-58
2022/03/14 04:23:50;;;;;;;;;;;;;;;0.94;58.87;103113.47;1688680;84;25809;-58
2022/03/14 04:26:17;;;;;;;;;;;;;;;0.98;58.55;103107.72;1684487;84;27485;-58
2022/03/14 04:28:43;;;;;;;;;;;;;;;0.97;58.29;103106.38;1705168;83;25633;-58
2022/03/14 04:31:10;;;;;;;;;;;;;;;0.96;58.45;103112.58;1705661;83;25720;-58
2022/03/14 04:33:36;;;;;;;;;;;;;;;0.99;58.83;103116.53;1694062;84;25782;-58
2022/03/14 04:36:05;;;;;;;;;;;;;;;1.06;58.98;103122.19;1686638;85;25768;-57
2022/03/14 04:38:32;;;;;;;;;;;;;;;1.09;58.88;103115.54;1682471;84;28179;-58
2022/03/14 04:40:58;;;;;;;;;;;;;;;1.06;58.71;103128.81;1682068;85;25502;-58
2022/03/14 04:43:24;;;;;;;;;;;;;;;1.03;58.67;103130.20;1657984;85;25757;-58
2022/03/14 04:45:51;;;;;;;;;;;;;;;1.00;58.68;103131.55;1682183;85;25794;-58
2022/03/14 04:48:17;;;;;;;;;;;;;;;1.01;58.56;103131.98;1682181;84;25645;-58
2022/03/14 04:50:44;;;;;;;;;;;;;;;1.03;58.46;103133.71;1682254;85;28177;-58
2022/03/14 04:53:10;;;;;;;;;;;;;;;1.04;58.41;103136.80;1682030;85;25787;-58
2022/03/14 04:55:37;;;;;;;;;;;;;;;1.07;58.36;103138.10;1682161;85;25720;-58
2022/03/14 04:58:04;;;;;;;;;;;;;;;1.08;58.16;103142.94;1676653;85;26995;-58
2022/03/14 05:00:33;;;;;;;;;;;;;;;1.07;58.21;103134.55;1671868;86;26354;-59
2022/03/14 05:03:01;;;;;;;;;;;;;;;1.07;58.34;103135.88;1671845;85;27547;-58
2022/03/14 05:05:29;;;;;;;;;;;;;;;1.11;58.30;103138.95;1671614;86;25847;-58
2022/03/14 05:07:56;;;;;;;;;;;;;;;1.12;58.13;103137.16;1671836;84;25774;-58
2022/03/14 05:10:23;;;;;;;;;;;;;;;1.12;58.40;103138.02;1671562;86;25721;-58
2022/03/14 05:12:52;;;;;;;;;;;;;;;1.15;58.27;103138.00;1671921;84;25722;-58
2022/03/14 05:15:18;;;;;;;;;;;;;;;1.18;58.22;103145.93;1671580;86;28263;-58
2022/03/14 05:17:46;;;;;;;;;;;;;;;1.21;58.37;103148.53;1671556;86;25818;-58
2022/03/14 05:20:13;;;;;;;;;;;;;;;1.23;58.61;103144.09;1672082;84;25801;-58
2022/03/14 05:22:48;;;;;;;;;;;;;;;1.26;58.61;103149.80;1671898;85;25781;-58
2022/03/14 05:25:17;;;;;;;;;;;;;;;1.31;58.52;103147.09;1671762;84;25881;-58
2022/03/14 05:27:44;;;;;;;;;;;;;;;1.35;58.48;103151.03;1671734;84;27581;-58
2022/03/14 05:30:12;;;;;;;;;;;;;;;1.37;58.32;103151.03;1671662;85;25650;-58
2022/03/14 05:32:40;;;;;;;;;;;;;;;1.37;58.19;103159.85;1672306;84;25749;-58
2022/03/14 05:35:17;;;;;;;;;;;;;;;1.40;58.27;103155.84;1680659;85;25756;-58
2022/03/14 05:37:44;;;;;;;;;;;;;;;1.43;58.09;103162.02;1680691;85;25715;-58
2022/03/14 05:40:13;;;;;;;;;;;;;;;1.44;58.00;103171.70;1681128;84;27463;-58
2022/03/14 05:42:39;;;;;;;;;;;;;;;1.45;57.91;103166.41;1680560;85;25812;-58
2022/03/14 05:45:08;;;;;;;;;;;;;;;1.48;57.94;103169.00;1681001;85;25736;-61
2022/03/14 05:47:35;;;;;;;;;;;;;;;1.53;57.75;103170.27;1680454;84;25802;-58
2022/03/14 05:50:03;;;;;;;;;;;;;;;1.59;57.69;103178.18;1680837;84;25531;-58
2022/03/14 05:52:30;;;;;;;;;;;;;;;1.63;57.56;103177.23;1680938;85;28277;-58
2022/03/14 05:54:56;;;;;;;;;;;;;;;1.63;57.34;103180.34;1680543;85;25792;-58
2022/03/14 05:57:23;;;;;;;;;;;;;;;1.61;57.20;103179.48;1682342;84;26515;-58
2022/03/14 05:59:50;;;;;;;;;;;;;;;1.62;57.31;103178.59;1706644;84;26620;-58
2022/03/14 06:02:21;;;;;;;;;;;;;;;1.64;57.39;103181.64;1706071;84;25813;-58
2022/03/14 06:04:49;;;;;;;;;;;;;;;1.70;57.49;103189.52;1706416;83;28149;-58
2022/03/14 06:07:15;;;;;;;;;;;;;;;1.77;57.43;103192.98;1706014;83;25905;-58
2022/03/14 06:09:41;;;;;;;;;;;;;;;1.83;57.35;103193.36;1706047;84;25474;-58
2022/03/14 06:12:10;;;;;;;;;;;;;;;1.90;57.18;103196.81;1705970;83;25844;-58
2022/03/14 06:14:37;;;;;;;;;;;;;;;1.92;56.96;103195.03;1706324;84;25803;-58
2022/03/14 06:17:04;;;;;;;;;;;;;;;1.92;56.98;103207.84;1706143;84;27536;-57
2022/03/14 06:19:31;;;;;;;;;;;;;;;1.94;56.94;103211.36;1705908;83;25885;-58
2022/03/14 06:21:57;;;;;;;;;;;;;;;2.00;56.74;103208.61;1706183;83;25526;-58
2022/03/14 06:24:24;;;;;;;;;;;;;;;2.02;56.66;103211.23;1700469;84;25795;-58
2022/03/14 06:26:50;;;;;;;;;;;;;;;2.02;56.56;103217.88;1680846;84;25722;-57
2022/03/14 06:29:18;;;;;;;;;;;;;;;2.00;56.51;103219.70;1680946;85;27599;-58
2022/03/14 06:31:45;;;;;;;;;;;;;;;2.00;56.46;103214.39;1680703;85;25928;-58
2022/03/14 06:34:12;;;;;;;;;;;;;;;2.02;56.56;103217.45;1680535;84;25794;-58
2022/03/14 06:36:38;;;;;;;;;;;;;;;2.05;56.54;103219.17;1680836;85;25980;-58
2022/03/14 06:39:05;;;;;;;;;;;;;;;2.08;56.49;103210.28;1680929;85;25774;-59
2022/03/14 06:41:39;;;;;;;;;;;;;;;2.07;56.39;103217.38;1680661;84;27485;-58
2022/03/14 06:44:00;;;;;;;;;;;;;;;2.12;56.48;103223.50;1681256;84;25659;-58
2022/03/14 06:46:26;;;;;;;;;;;;;;;2.17;56.21;103216.36;1680673;85;26326;-58
2022/03/14 06:48:53;;;;;;;;;;;;;;;2.17;56.22;103229.64;1680939;85;25972;-58
2022/03/14 06:51:20;;;;;;;;;;;;;;;2.21;56.23;103221.61;1680632;85;25833;-57
2022/03/14 06:53:48;;;;;;;;;;;;;;;2.25;56.12;103229.98;1680837;85;27479;-59
2022/03/14 06:56:16;;;;;;;;;;;;;;;2.27;56.24;103225.53;1680519;85;25809;-58
2022/03/14 06:58:44;;;;;;;;;;;;;;;2.31;56.11;103239.17;1698932;84;25784;-58
2022/03/14 07:01:12;;;;;;;;;;;;;;;2.32;56.02;103241.84;1701111;84;25875;-58
2022/03/14 07:03:39;;;;;;;;;;;;;;;2.34;55.96;103235.16;1701095;84;25817;-59
2022/03/14 07:06:05;;;;;;;;;;;;;;;2.36;55.71;103237.36;1700902;83;27562;-59
2022/03/14 07:08:31;;;;;;;;;;;;;;;2.38;55.88;103242.17;1700793;84;25738;-58
2022/03/14 07:10:58;;;;;;;;;;;;;;;2.40;55.73;103240.37;1701091;84;25701;-58
2022/03/14 07:13:24;;;;;;;;;;;;;;;2.40;55.78;103249.67;1700919;84;26279;-58
2022/03/14 07:15:51;;;;;;;;;;;;;;;2.43;55.70;103252.30;1701081;84;25774;-58
2022/03/14 07:18:18;;;;;;;;;;;;;;;2.43;55.78;103248.31;1700999;83;27482;-58
2022/03/14 07:20:44;;;;;;;;;;;;;;;2.52;55.86;103251.73;1700862;83;25848;-58
2022/03/14 07:23:11;;;;;;;;;;;;;;;2.59;55.81;103245.42;1700971;84;25832;-58
2022/03/14 07:25:38;;;;;;;;;;;;;;;2.66;55.71;103243.98;1679194;84;25839;-58
2022/03/14 07:28:07;;;;;;;;;;;;;;;2.73;55.46;103239.89;1671198;84;26385;-58
2022/03/14 07:30:36;;;;;;;;;;;;;;;2.76;55.41;103242.05;1671267;84;26990;-59
2022/03/14 07:33:03;;;;;;;;;;;;;;;2.82;55.40;103247.26;1651783;86;25865;-58
2022/03/14 07:35:30;;;;;;;;;;;;;;;2.86;55.13;103249.87;1673358;85;25647;-60
2022/03/14 07:37:57;;;;;;;;;;;;;;;2.89;55.03;103241.86;1673419;84;25811;-58
2022/03/14 07:40:24;;;;;;;;;;;;;;;2.97;54.88;103246.59;1673605;85;25827;-58
2022/03/14 07:42:52;;;;;;;;;;;;;;;3.01;54.77;103244.30;1673606;84;27244;-58
2022/03/14 07:45:21;;;;;;;;;;;;;;;3.09;54.80;103249.03;1673692;84;25723;-58
2022/03/14 07:47:49;;;;;;;;;;;;;;;3.19;54.77;103250.20;1673439;85;25826;-59
2022/03/14 07:50:16;;;;;;;;;;;;;;;3.24;54.44;103252.34;1673509;85;25878;-58
2022/03/14 07:52:43;;;;;;;;;;;;;;;3.28;54.20;103258.02;1673439;85;25969;-58
2022/03/14 07:55:11;;;;;;;;;;;;;;;3.33;54.23;103254.84;1673441;85;28239;-58
2022/03/14 07:57:38;;;;;;;;;;;;;;;3.37;54.08;103256.52;1677686;84;25951;-58
2022/03/14 08:00:09;;;;;;;;;;;;;;;3.43;54.00;103255.10;1688905;85;25722;-58
2022/03/14 08:02:39;;;;;;;;;;;;;;;3.47;53.94;103254.59;1688027;85;25873;-58
2022/03/14 08:05:09;;;;;;;;;;;;;;;3.50;53.72;103251.84;1689131;85;25736;-58
2022/03/14 08:07:37;;;;;;;;;;;;;;;3.55;53.59;103249.09;1688154;84;28315;-58
2022/03/14 08:10:09;;;;;;;;;;;;;;;3.65;53.66;103246.69;1703652;83;25808;-58
2022/03/14 08:12:51;;;;;;;;;;;;;;;3.80;53.31;103245.98;1703595;83;25722;-58
2022/03/14 08:15:29;;;;;;;;;;;;;;;3.95;52.74;103240.33;1702883;84;26482;-58
2022/03/14 08:17:59;;;;;;;;;;;;;;;4.12;52.27;103241.75;1703405;83;25812;-58
2022/03/14 08:20:28;;;;;;;;;;;;;;;4.23;50.47;103236.59;1702956;84;27490;-58
2022/03/14 08:22:57;;;;;;;;;;;;;;;4.38;50.85;103239.38;1703222;84;25737;-59
2022/03/14 08:25:26;;;;;;;;;;;;;;;4.50;49.62;103238.22;1690496;82;25780;-58
2022/03/14 08:27:53;;;;;;;;;;;;;;;4.59;49.07;103242.91;1682891;85;25940;-58
2022/03/14 08:30:24;;;;;;;;;;;;;;;4.65;47.73;103243.64;1682892;84;25721;-58
2022/03/14 08:32:51;;;;;;;;;;;;;;;4.73;47.25;103247.91;1683087;85;27488;-58
2022/03/14 08:35:20;;;;;;;;;;;;;;;4.93;48.09;103245.64;1682505;85;25807;-58
2022/03/14 08:37:49;;;;;;;;;;;;;;;5.16;48.13;103245.50;1682977;84;25768;-58
2022/03/14 08:40:17;;;;;;;;;;;;;;;5.40;44.54;103242.64;1683220;84;26379;-58
2022/03/14 08:42:45;;;;;;;;;;;;;;;5.54;42.18;103238.73;1682941;85;25794;-58
2022/03/14 08:45:12;;;;;;;;;;;;;;;5.63;44.00;103239.34;1682674;85;27495;-58
2022/03/14 08:47:39;;;;;;;;;;;;;;;5.88;44.75;103234.62;1682780;84;25992;-58
2022/03/14 08:50:08;;;;;;;;;;;;;;;6.11;44.00;103240.66;1683385;84;25769;-58
2022/03/14 08:52:36;;;;;;;;;;;;;;;6.32;43.90;103238.25;1682905;84;26377;-59
2022/03/14 08:55:04;;;;;;;;;;;;;;;6.57;43.13;103232.12;1682950;85;25653;-59
2022/03/14 08:57:31;;;;;;;;;;;;;;;6.68;43.16;103229.98;1691483;84;27532;-58
2022/03/14 08:59:59;;;;;;;;;;;;;;;6.88;41.57;103233.81;1687285;84;25828;-59
2022/03/14 09:02:26;;;;;;;;;;;;;;;7.02;42.35;103226.66;1687693;84;25921;-58
2022/03/14 09:04:53;;;;;;;;;;;;;;;7.10;40.02;103235.29;1698813;84;25749;-58
2022/03/14 09:07:29;;;;;;;;;;;;;;;7.19;40.18;103228.72;1703374;83;26310;-58
2022/03/14 09:10:12;;;;;;;;;;;;;;;7.32;39.08;103228.72;1703394;83;28489;-58
2022/03/14 09:12:40;;;;;;;;;;;;;;;7.32;40.05;103223.81;1703560;83;25720;-58
2022/03/14 09:15:08;;;;;;;;;;;;;;;7.49;40.06;103231.25;1702869;84;25750;-60
2022/03/14 09:17:37;;;;;;;;;;;;;;;7.58;39.00;103230.03;1703657;84;25754;-58
2022/03/14 09:20:05;;;;;;;;;;;;;;;7.44;38.08;103231.42;1702076;84;25757;-59
2022/03/14 09:22:32;;;;;;;;;;;;;;;7.40;37.61;103227.56;1702275;83;28222;-58
2022/03/14 09:25:00;;;;;;;;;;;;;;;7.36;37.20;103227.66;1693330;84;25801;-58
2022/03/14 09:27:27;;;;;;;;;;;;;;;7.36;36.69;103230.82;1682862;85;25811;-58
2022/03/14 09:29:54;;;;;;;;;;;;;;;7.34;36.59;103221.52;1698520;84;25865;-58
2022/03/14 09:32:21;;;;;;;;;;;;;;;7.33;37.38;103226.91;1703544;83;25943;-58
2022/03/14 09:34:47;;;;;;;;;;;;;;;7.36;37.48;103230.82;1700126;83;27627;-58
2022/03/14 09:37:14;;;;;;;;;;;;;;;7.39;36.98;103225.37;1698615;83;25698;-58
2022/03/14 09:39:41;;;;;;;;;;;;;;;7.43;37.48;103226.98;1673033;85;25848;-58
2022/03/14 09:42:13;;;;;;;;;;;;;;;7.43;36.46;103226.98;1670443;85;25878;-59
2022/03/14 09:44:42;;;;;;;;;;;;;;;7.37;36.27;103221.86;1670526;85;25803;-58
2022/03/14 09:47:10;;;;;;;;;;;;;;;7.33;36.94;103222.44;1670351;84;28391;-59
2022/03/14 09:49:36;;;;;;;;;;;;;;;7.23;36.59;103218.78;1670542;85;25754;-59
2022/03/14 09:52:04;;;;;;;;;;;;;;;7.28;36.82;103214.16;1670575;86;25513;-58
2022/03/14 09:54:32;;;;;;;;;;;;;;;7.42;36.97;103212.33;1670759;85;26542;-58
2022/03/14 09:57:00;;;;;;;;;;;;;;;7.59;36.82;103215.70;1700743;83;25693;-58
2022/03/14 09:59:28;;;;;;;;;;;;;;;7.76;36.12;103207.91;1686980;84;27595;-58
2022/03/14 10:01:55;;;;;;;;;;;;;;;7.88;35.17;103213.75;1684970;84;25489;-58
2022/03/14 10:04:22;;;;;;;;;;;;;;;7.82;34.97;103202.34;1685316;85;26449;-58
2022/03/14 10:06:49;;;;;;;;;;;;;;;7.65;35.36;103207.47;1685041;85;25800;-58
2022/03/14 10:09:16;;;;;;;;;;;;;;;7.63;35.78;103211.52;1684775;85;25638;-58
2022/03/14 10:11:42;;;;;;;;;;;;;;;7.67;35.26;103207.81;1684996;85;27492;-59
2022/03/14 10:14:11;;;;;;;;;;;;;;;7.68;35.84;103204.65;1684910;85;25465;-58
2022/03/14 10:16:38;;;;;;;;;;;;;;;7.71;36.37;103209.91;1684919;85;25733;-59
2022/03/14 10:19:09;;;;;;;;;;;;;;;7.79;35.07;103210.48;1684741;85;26315;-59
2022/03/14 10:21:37;;;;;;;;;;;;;;;7.74;34.94;103205.78;1685075;84;25738;-59
2022/03/14 10:24:06;;;;;;;;;;;;;;;7.72;35.54;103201.39;1685269;84;28180;-58
2022/03/14 10:26:34;;;;;;;;;;;;;;;7.72;35.40;103202.28;1689079;84;25793;-59
2022/03/14 10:29:03;;;;;;;;;;;;;;;7.87;36.01;103200.83;1698675;84;25832;-58
2022/03/14 10:31:38;;;;;;;;;;;;;;;7.98;35.39;103207.97;1698594;84;25769;-58
2022/03/14 10:34:13;;;;;;;;;;;;;;;8.00;35.44;103206.59;1698741;84;25730;-58
2022/03/14 10:36:46;;;;;;;;;;;;;;;8.13;35.74;103201.62;1698311;84;27481;-58
2022/03/14 10:39:27;;;;;;;;;;;;;;;8.30;35.73;103198.25;1698321;84;25766;-59
2022/03/14 10:42:12;;;;;;;;;;;;;;;8.26;35.32;103198.84;1698551;84;25752;-59
2022/03/14 10:44:41;;;;;;;;;;;;;;;8.29;34.50;103200.55;1698513;83;25837;-58
2022/03/14 10:47:12;;;;;;;;;;;;;;;8.28;34.76;103202.83;1698575;84;25703;-58
2022/03/14 10:49:40;;;;;;;;;;;;;;;8.33;34.80;103190.58;1698918;84;26808;-58
2022/03/14 10:52:10;;;;;;;;;;;;;;;8.48;35.21;103181.03;1698458;83;25780;-59
2022/03/14 10:54:40;;;;;;;;;;;;;;;8.80;34.04;103182.86;1698539;84;25730;-58
2022/03/14 10:57:10;;;;;;;;;;;;;;;9.28;33.98;103188.36;1695117;84;25744;-58
2022/03/14 10:59:42;;;;;;;;;;;;;;;10.71;32.16;103175.83;1682318;85;25789;-59
2022/03/14 11:02:11;;;;;;;;;;;;;;;12.12;31.30;103170.16;1697047;84;27615;-59
2022/03/14 11:04:50;;;;;;;;;;;;;;;13.25;29.75;103158.09;1697610;84;25820;-59
2022/03/14 11:07:20;;;;;;;;;;;;;;;14.38;30.68;103151.78;1700087;83;25839;-59
2022/03/14 11:09:53;;;;;;;;;;;;;;;15.58;29.64;103149.84;1709840;82;27029;-59
2022/03/14 11:12:22;;;;;;;;;;;;;;;16.61;26.89;103150.48;1720340;82;26837;-59
2022/03/14 11:15:00;;;;;;;;;;;;;;;17.41;26.88;103148.32;1702834;83;27453;-59
2022/03/14 11:17:29;;;;;;;;;;;;;;;17.21;25.29;103145.84;1698275;83;25486;-59
2022/03/14 11:19:58;;;;;;;;;;;;;;;17.37;23.45;103144.09;1698551;84;25729;-60
2022/03/14 11:22:26;;;;;;;;;;;;;;;17.29;22.86;103151.53;1697417;84;25747;-59
2022/03/14 11:24:55;;;;;;;;;;;;;;;17.60;24.28;103141.39;1691674;84;25706;-59
2022/03/14 11:27:27;;;;;;;;;;;;;;;17.75;23.87;103146.94;1682930;84;27453;-59
2022/03/14 11:29:55;;;;;;;;;;;;;;;18.06;23.05;103136.75;1682951;85;25653;-59
2022/03/14 11:32:22;;;;;;;;;;;;;;;18.04;24.26;103131.45;1682979;85;25791;-59
2022/03/14 11:34:50;;;;;;;;;;;;;;;17.98;22.92;103131.94;1682910;84;25808;-59
2022/03/14 11:37:18;;;;;;;;;;;;;;;18.01;24.17;103134.92;1682446;84;25761;-59
2022/03/14 11:39:46;;;;;;;;;;;;;;;18.03;24.21;103128.83;1683191;85;27457;-59
2022/03/14 11:42:15;;;;;;;;;;;;;;;17.61;23.46;103124.92;1682920;85;25686;-59
2022/03/14 11:44:45;;;;;;;;;;;;;;;17.35;23.70;103130.63;1682967;85;25709;-59
2022/03/14 11:47:13;;;;;;;;;;;;;;;17.19;24.36;103123.33;1682581;84;26134;-59
2022/03/14 11:49:41;;;;;;;;;;;;;;;17.23;23.58;103128.03;1683197;85;25736;-59
2022/03/14 11:52:19;;;;;;;;;;;;;;;17.09;23.75;103120.97;1682810;85;27442;-59
2022/03/14 11:54:57;;;;;;;;;;;;;;;16.89;24.72;103114.73;1683013;84;25714;-58
2022/03/14 11:57:41;;;;;;;;;;;;;;;16.92;24.41;103120.89;1687078;84;25533;-60
2022/03/14 12:00:32;;;;;;;;;;;;;;;16.67;23.19;103118.27;1697205;84;25894;-59
2022/03/14 12:03:01;;;;;;;;;;;;;;;15.95;23.55;103110.54;1697073;84;25796;-59
2022/03/14 12:05:35;;;;;;;;;;;;;;;15.81;23.79;103116.10;1700607;84;28697;-59
2022/03/14 12:08:17;;;;;;;;;;;;;;;15.78;23.48;103113.09;1696877;84;25755;-59
2022/03/14 12:10:44;;;;;;;;;;;;;;;15.76;23.81;103107.42;1696836;84;25737;-59
2022/03/14 12:13:10;;;;;;;;;;;;;;;15.76;23.56;103112.38;1697349;84;26574;-59
2022/03/14 12:15:41;;;;;;;;;;;;;;;15.66;23.88;103101.81;1697311;84;26277;-59
2022/03/14 12:18:27;;;;;;;;;;;;;;;15.72;23.54;103108.14;1697038;84;27480;-59
2022/03/14 12:21:04;;;;;;;;;;;;;;;15.58;23.80;103102.36;1678829;84;25926;-59
2022/03/14 12:23:33;;;;;;;;;;;;;;;15.70;23.46;103099.23;1697005;84;25740;-59
2022/03/14 12:26:22;;;;;;;;;;;;;;;15.78;24.15;103098.17;1694573;84;25880;-59
2022/03/14 12:28:49;;;;;;;;;;;;;;;15.99;24.19;103093.52;1658030;85;25664;-60
2022/03/14 12:31:17;;;;;;;;;;;;;;;16.23;23.36;103084.02;1686489;85;28125;-59
2022/03/14 12:33:47;;;;;;;;;;;;;;;16.44;22.35;103082.01;1686166;85;25725;-59
2022/03/14 12:36:22;;;;;;;;;;;;;;;16.57;22.69;103080.56;1687085;84;26271;-59
2022/03/14 12:39:18;;;;;;;;;;;;;;;16.76;22.21;103081.84;1686089;85;25806;-59
2022/03/14 12:41:43;;;;;;;;;;;;;;;17.20;22.85;103074.23;1688123;85;25731;-59
2022/03/14 12:44:21;;;;;;;;;;;;;;;17.68;21.79;103075.79;1688567;85;28032;-59
2022/03/14 12:46:50;;;;;;;;;;;;;;;17.95;20.21;103070.91;1688536;83;25522;-60
2022/03/14 12:49:28;;;;;;;;;;;;;;;18.04;21.87;103067.44;1688438;85;25804;-60
2022/03/14 12:52:13;;;;;;;;;;;;;;;18.75;21.16;103065.94;1681287;84;26147;-59